sensor_id;sensor_type;location;lat;lon;timestamp;P1;durP1;ratioP1;P2;durP2;ratioP2
9665;SDS011;4871;52.004;5.924;2023-01-20T00:00:00;10.00;;;6.20;;
9665;SDS011;4871;52.004;5.924;2023-01-20T00:01:00;10.00;;;6.20;;
9665;SDS011;4871;52.004;5.924;2023-01-20T00:02:00;10.00;;;6.20;;
9665;SDS011;4871;52.004;5.924;2023-01-20T00:03:00;10.00;;;6.20;;
9665;SDS011;4871;52.004;5.924;2023-01-20T00:04:00;10.00;;;6.20;;
9665;SDS011;4871;52.004;5.924;2023-01-20T00:05:00;10.00;;;6.20;;
9665;SDS011;4871;52.004;5.924;2023-01-20T00:06:00;10.00;;;6.20;;
9665;SDS011;4871;52.004;5.924;2023-01-20T00:07:00;10.00;;;6.20;;
9665;SDS011;4871;52.004;5.924;2023-01-20T00:08:00;10.00;;;6.20;;
9665;SDS011;4871;52.004;5.924;2023-01-20T00:09:00;10.00;;;6.20;;
9665;SDS011;4871;52.004;5.924;2023-01-20T00:10:00;10.00;;;6.20;;
9665;SDS011;4871;52.004;5.924;2023-01-20T00:11:08;10.00;;;6.20;;
9665;SDS011;4871;52.004;5.924;2023-01-20T00:12:00;10.00;;;6.20;;
9665;SDS011;4871;52.004;5.924;2023-01-20T00:13:00;10.00;;;6.20;;
9665;SDS011;4871;52.004;5.924;2023-01-20T00:14:00;10.00;;;6.20;;
9665;SDS011;4871;52.004;5.924;2023-01-20T00:15:00;10.00;;;6.20;;
9665;SDS011;4871;52.004;5.924;2023-01-20T00:16:01;10.00;;;6.20;;
9665;SDS011;4871;52.004;5.924;2023-01-20T00:17:00;10.00;;;6.20;;
9665;SDS011;4871;52.004;5.924;2023-01-20T00:18:00;10.00;;;6.20;;
9665;SDS011;4871;52.004;5.924;2023-01-20T00:19:00;10.00;;;6.20;;
9665;SDS011;4871;52.004;5.924;2023-01-20T00:20:00;10.00;;;6.20;;
9665;SDS011;4871;52.004;5.924;2023-01-20T00:21:02;10.00;;;6.20;;
9665;SDS011;4871;52.004;5.924;2023-01-20T00:22:00;10.00;;;6.20;;
9665;SDS011;4871;52.004;5.924;2023-01-20T00:23:00;10.00;;;6.20;;
9665;SDS011;4871;52.004;5.924;2023-01-20T00:24:00;10.00;;;6.20;;
9665;SDS011;4871;52.004;5.924;2023-01-20T00:25:00;10.00;;;6.20;;
9665;SDS011;4871;52.004;5.924;2023-01-20T00:26:16;10.00;;;6.20;;
9665;SDS011;4871;52.004;5.924;2023-01-20T00:27:00;10.00;;;6.20;;
9665;SDS011;4871;52.004;5.924;2023-01-20T00:28:00;10.00;;;6.20;;
9665;SDS011;4871;52.004;5.924;2023-01-20T00:29:00;9.20;;;5.80;;
9665;SDS011;4871;52.004;5.924;2023-01-20T00:30:00;9.20;;;5.80;;
9665;SDS011;4871;52.004;5.924;2023-01-20T00:32:01;9.20;;;5.80;;
9665;SDS011;4871;52.004;5.924;2023-01-20T00:33:00;9.20;;;5.80;;
9665;SDS011;4871;52.004;5.924;2023-01-20T00:34:00;9.20;;;5.80;;
9665;SDS011;4871;52.004;5.924;2023-01-20T00:35:00;9.20;;;5.80;;
9665;SDS011;4871;52.004;5.924;2023-01-20T00:36:00;9.20;;;5.80;;
9665;SDS011;4871;52.004;5.924;2023-01-20T00:37:00;9.20;;;5.80;;
9665;SDS011;4871;52.004;5.924;2023-01-20T00:38:00;9.20;;;5.80;;
9665;SDS011;4871;52.004;5.924;2023-01-20T00:39:00;9.20;;;5.80;;
9665;SDS011;4871;52.004;5.924;2023-01-20T00:40:00;9.20;;;5.80;;
9665;SDS011;4871;52.004;5.924;2023-01-20T00:41:00;9.20;;;5.80;;
9665;SDS011;4871;52.004;5.924;2023-01-20T00:42:00;9.20;;;5.80;;
9665;SDS011;4871;52.004;5.924;2023-01-20T00:43:00;9.20;;;5.80;;
9665;SDS011;4871;52.004;5.924;2023-01-20T00:44:00;9.20;;;5.80;;
9665;SDS011;4871;52.004;5.924;2023-01-20T00:45:00;9.20;;;5.80;;
9665;SDS011;4871;52.004;5.924;2023-01-20T00:46:00;9.20;;;5.80;;
9665;SDS011;4871;52.004;5.924;2023-01-20T00:47:00;9.20;;;5.80;;
9665;SDS011;4871;52.004;5.924;2023-01-20T00:48:00;9.20;;;5.80;;
9665;SDS011;4871;52.004;5.924;2023-01-20T00:49:00;9.20;;;5.80;;
9665;SDS011;4871;52.004;5.924;2023-01-20T00:50:00;9.20;;;5.80;;
9665;SDS011;4871;52.004;5.924;2023-01-20T00:51:00;9.20;;;5.80;;
9665;SDS011;4871;52.004;5.924;2023-01-20T00:52:00;9.20;;;5.80;;
9665;SDS011;4871;52.004;5.924;2023-01-20T00:53:00;9.20;;;5.80;;
9665;SDS011;4871;52.004;5.924;2023-01-20T00:54:00;9.20;;;5.80;;
9665;SDS011;4871;52.004;5.924;2023-01-20T00:55:00;9.20;;;5.80;;
9665;SDS011;4871;52.004;5.924;2023-01-20T00:56:00;9.20;;;5.80;;
9665;SDS011;4871;52.004;5.924;2023-01-20T00:57:00;9.20;;;5.80;;
9665;SDS011;4871;52.004;5.924;2023-01-20T00:58:00;9.20;;;5.80;;
9665;SDS011;4871;52.004;5.924;2023-01-20T00:59:00;19.10;;;10.90;;
9665;SDS011;4871;52.004;5.924;2023-01-20T01:00:00;19.10;;;10.90;;
9665;SDS011;4871;52.004;5.924;2023-01-20T01:01:00;19.10;;;10.90;;
9665;SDS011;4871;52.004;5.924;2023-01-20T01:02:00;19.10;;;10.90;;
9665;SDS011;4871;52.004;5.924;2023-01-20T01:03:00;19.10;;;10.90;;
9665;SDS011;4871;52.004;5.924;2023-01-20T01:04:00;19.10;;;10.90;;
9665;SDS011;4871;52.004;5.924;2023-01-20T01:05:00;19.10;;;10.90;;
9665;SDS011;4871;52.004;5.924;2023-01-20T01:06:08;19.10;;;10.90;;
9665;SDS011;4871;52.004;5.924;2023-01-20T01:07:00;19.10;;;10.90;;
9665;SDS011;4871;52.004;5.924;2023-01-20T01:08:00;19.10;;;10.90;;
9665;SDS011;4871;52.004;5.924;2023-01-20T01:09:00;19.10;;;10.90;;
9665;SDS011;4871;52.004;5.924;2023-01-20T01:10:00;19.10;;;10.90;;
9665;SDS011;4871;52.004;5.924;2023-01-20T01:11:00;19.10;;;10.90;;
9665;SDS011;4871;52.004;5.924;2023-01-20T01:12:00;19.10;;;10.90;;
9665;SDS011;4871;52.004;5.924;2023-01-20T01:13:00;19.10;;;10.90;;
9665;SDS011;4871;52.004;5.924;2023-01-20T01:14:00;19.10;;;10.90;;
9665;SDS011;4871;52.004;5.924;2023-01-20T01:15:00;19.10;;;10.90;;
9665;SDS011;4871;52.004;5.924;2023-01-20T01:16:00;19.10;;;10.90;;
9665;SDS011;4871;52.004;5.924;2023-01-20T01:17:00;19.10;;;10.90;;
9665;SDS011;4871;52.004;5.924;2023-01-20T01:18:00;19.10;;;10.90;;
9665;SDS011;4871;52.004;5.924;2023-01-20T01:19:00;19.10;;;10.90;;
9665;SDS011;4871;52.004;5.924;2023-01-20T01:20:00;19.10;;;10.90;;
9665;SDS011;4871;52.004;5.924;2023-01-20T01:21:04;19.10;;;10.90;;
9665;SDS011;4871;52.004;5.924;2023-01-20T01:22:00;19.10;;;10.90;;
9665;SDS011;4871;52.004;5.924;2023-01-20T01:23:00;19.10;;;10.90;;
9665;SDS011;4871;52.004;5.924;2023-01-20T01:24:00;19.10;;;10.90;;
9665;SDS011;4871;52.004;5.924;2023-01-20T01:25:00;19.10;;;10.90;;
9665;SDS011;4871;52.004;5.924;2023-01-20T01:26:00;19.10;;;10.90;;
9665;SDS011;4871;52.004;5.924;2023-01-20T01:27:00;19.10;;;10.90;;
9665;SDS011;4871;52.004;5.924;2023-01-20T01:28:00;19.10;;;10.90;;
9665;SDS011;4871;52.004;5.924;2023-01-20T01:29:00;16.40;;;9.60;;
9665;SDS011;4871;52.004;5.924;2023-01-20T01:30:00;16.40;;;9.60;;
9665;SDS011;4871;52.004;5.924;2023-01-20T01:31:02;16.40;;;9.60;;
9665;SDS011;4871;52.004;5.924;2023-01-20T01:32:00;16.40;;;9.60;;
9665;SDS011;4871;52.004;5.924;2023-01-20T01:33:00;16.40;;;9.60;;
9665;SDS011;4871;52.004;5.924;2023-01-20T01:34:00;16.40;;;9.60;;
9665;SDS011;4871;52.004;5.924;2023-01-20T01:35:00;16.40;;;9.60;;
9665;SDS011;4871;52.004;5.924;2023-01-20T01:36:00;16.40;;;9.60;;
9665;SDS011;4871;52.004;5.924;2023-01-20T01:37:00;16.40;;;9.60;;
9665;SDS011;4871;52.004;5.924;2023-01-20T01:38:00;16.40;;;9.60;;
9665;SDS011;4871;52.004;5.924;2023-01-20T01:39:00;16.40;;;9.60;;
9665;SDS011;4871;52.004;5.924;2023-01-20T01:40:00;16.40;;;9.60;;
9665;SDS011;4871;52.004;5.924;2023-01-20T01:41:00;16.40;;;9.60;;
9665;SDS011;4871;52.004;5.924;2023-01-20T01:42:00;16.40;;;9.60;;
9665;SDS011;4871;52.004;5.924;2023-01-20T01:43:00;16.40;;;9.60;;
9665;SDS011;4871;52.004;5.924;2023-01-20T01:44:08;16.40;;;9.60;;
9665;SDS011;4871;52.004;5.924;2023-01-20T01:46:00;16.40;;;9.60;;
9665;SDS011;4871;52.004;5.924;2023-01-20T01:47:00;16.40;;;9.60;;
9665;SDS011;4871;52.004;5.924;2023-01-20T01:49:01;16.40;;;9.60;;
9665;SDS011;4871;52.004;5.924;2023-01-20T01:50:00;16.40;;;9.60;;
9665;SDS011;4871;52.004;5.924;2023-01-20T01:51:02;16.40;;;9.60;;
9665;SDS011;4871;52.004;5.924;2023-01-20T01:52:01;16.40;;;9.60;;
9665;SDS011;4871;52.004;5.924;2023-01-20T01:53:00;16.40;;;9.60;;
9665;SDS011;4871;52.004;5.924;2023-01-20T01:54:02;16.40;;;9.60;;
9665;SDS011;4871;52.004;5.924;2023-01-20T01:55:00;16.40;;;9.60;;
9665;SDS011;4871;52.004;5.924;2023-01-20T01:56:00;16.40;;;9.60;;
9665;SDS011;4871;52.004;5.924;2023-01-20T01:57:00;16.40;;;9.60;;
9665;SDS011;4871;52.004;5.924;2023-01-20T01:58:00;16.40;;;9.60;;
9665;SDS011;4871;52.004;5.924;2023-01-20T01:59:00;18.30;;;11.00;;
9665;SDS011;4871;52.004;5.924;2023-01-20T02:00:00;18.30;;;11.00;;
9665;SDS011;4871;52.004;5.924;2023-01-20T02:01:00;18.30;;;11.00;;
9665;SDS011;4871;52.004;5.924;2023-01-20T02:02:00;18.30;;;11.00;;
9665;SDS011;4871;52.004;5.924;2023-01-20T02:03:00;18.30;;;11.00;;
9665;SDS011;4871;52.004;5.924;2023-01-20T02:04:03;18.30;;;11.00;;
9665;SDS011;4871;52.004;5.924;2023-01-20T02:05:00;18.30;;;11.00;;
9665;SDS011;4871;52.004;5.924;2023-01-20T02:06:00;18.30;;;11.00;;
9665;SDS011;4871;52.004;5.924;2023-01-20T02:07:02;18.30;;;11.00;;
9665;SDS011;4871;52.004;5.924;2023-01-20T02:08:00;18.30;;;11.00;;
9665;SDS011;4871;52.004;5.924;2023-01-20T02:09:00;18.30;;;11.00;;
9665;SDS011;4871;52.004;5.924;2023-01-20T02:10:00;18.30;;;11.00;;
9665;SDS011;4871;52.004;5.924;2023-01-20T02:11:00;18.30;;;11.00;;
9665;SDS011;4871;52.004;5.924;2023-01-20T02:12:01;18.30;;;11.00;;
9665;SDS011;4871;52.004;5.924;2023-01-20T02:13:00;18.30;;;11.00;;
9665;SDS011;4871;52.004;5.924;2023-01-20T02:14:00;18.30;;;11.00;;
9665;SDS011;4871;52.004;5.924;2023-01-20T02:15:00;18.30;;;11.00;;
9665;SDS011;4871;52.004;5.924;2023-01-20T02:16:04;18.30;;;11.00;;
9665;SDS011;4871;52.004;5.924;2023-01-20T02:18:04;18.30;;;11.00;;
9665;SDS011;4871;52.004;5.924;2023-01-20T02:24:21;18.30;;;11.00;;
9665;SDS011;4871;52.004;5.924;2023-01-20T02:29:13;15.10;;;9.70;;
9665;SDS011;4871;52.004;5.924;2023-01-20T02:32:08;15.10;;;9.70;;
9665;SDS011;4871;52.004;5.924;2023-01-20T02:33:09;15.10;;;9.70;;
9665;SDS011;4871;52.004;5.924;2023-01-20T02:34:05;15.10;;;9.70;;
9665;SDS011;4871;52.004;5.924;2023-01-20T02:36:20;15.10;;;9.70;;
9665;SDS011;4871;52.004;5.924;2023-01-20T02:37:17;15.10;;;9.70;;
9665;SDS011;4871;52.004;5.924;2023-01-20T02:39:02;15.10;;;9.70;;
9665;SDS011;4871;52.004;5.924;2023-01-20T02:40:06;15.10;;;9.70;;
9665;SDS011;4871;52.004;5.924;2023-01-20T02:41:16;15.10;;;9.70;;
9665;SDS011;4871;52.004;5.924;2023-01-20T02:42:01;15.10;;;9.70;;
9665;SDS011;4871;52.004;5.924;2023-01-20T02:44:02;15.10;;;9.70;;
9665;SDS011;4871;52.004;5.924;2023-01-20T02:45:01;15.10;;;9.70;;
9665;SDS011;4871;52.004;5.924;2023-01-20T02:47:01;15.10;;;9.70;;
9665;SDS011;4871;52.004;5.924;2023-01-20T02:48:04;15.10;;;9.70;;
9665;SDS011;4871;52.004;5.924;2023-01-20T02:49:04;15.10;;;9.70;;
9665;SDS011;4871;52.004;5.924;2023-01-20T02:50:04;15.10;;;9.70;;
9665;SDS011;4871;52.004;5.924;2023-01-20T02:51:02;15.10;;;9.70;;
9665;SDS011;4871;52.004;5.924;2023-01-20T02:52:15;15.10;;;9.70;;
9665;SDS011;4871;52.004;5.924;2023-01-20T02:53:00;15.10;;;9.70;;
9665;SDS011;4871;52.004;5.924;2023-01-20T02:54:02;15.10;;;9.70;;
9665;SDS011;4871;52.004;5.924;2023-01-20T02:55:02;15.10;;;9.70;;
9665;SDS011;4871;52.004;5.924;2023-01-20T02:56:00;15.10;;;9.70;;
9665;SDS011;4871;52.004;5.924;2023-01-20T02:57:00;15.10;;;9.70;;
9665;SDS011;4871;52.004;5.924;2023-01-20T02:58:01;15.10;;;9.70;;
9665;SDS011;4871;52.004;5.924;2023-01-20T02:59:01;16.10;;;10.10;;
9665;SDS011;4871;52.004;5.924;2023-01-20T03:00:05;16.10;;;10.10;;
9665;SDS011;4871;52.004;5.924;2023-01-20T03:01:02;16.10;;;10.10;;
9665;SDS011;4871;52.004;5.924;2023-01-20T03:02:02;16.10;;;10.10;;
9665;SDS011;4871;52.004;5.924;2023-01-20T03:03:00;16.10;;;10.10;;
9665;SDS011;4871;52.004;5.924;2023-01-20T03:04:00;16.10;;;10.10;;
9665;SDS011;4871;52.004;5.924;2023-01-20T03:05:01;16.10;;;10.10;;
9665;SDS011;4871;52.004;5.924;2023-01-20T03:06:01;16.10;;;10.10;;
9665;SDS011;4871;52.004;5.924;2023-01-20T03:07:00;16.10;;;10.10;;
9665;SDS011;4871;52.004;5.924;2023-01-20T03:08:01;16.10;;;10.10;;
9665;SDS011;4871;52.004;5.924;2023-01-20T03:09:00;16.10;;;10.10;;
9665;SDS011;4871;52.004;5.924;2023-01-20T03:10:00;16.10;;;10.10;;
9665;SDS011;4871;52.004;5.924;2023-01-20T03:11:02;16.10;;;10.10;;
9665;SDS011;4871;52.004;5.924;2023-01-20T03:12:00;16.10;;;10.10;;
9665;SDS011;4871;52.004;5.924;2023-01-20T03:13:03;16.10;;;10.10;;
9665;SDS011;4871;52.004;5.924;2023-01-20T03:14:04;16.10;;;10.10;;
9665;SDS011;4871;52.004;5.924;2023-01-20T03:15:00;16.10;;;10.10;;
9665;SDS011;4871;52.004;5.924;2023-01-20T03:16:01;16.10;;;10.10;;
9665;SDS011;4871;52.004;5.924;2023-01-20T03:17:00;16.10;;;10.10;;
9665;SDS011;4871;52.004;5.924;2023-01-20T03:18:00;16.10;;;10.10;;
9665;SDS011;4871;52.004;5.924;2023-01-20T03:19:00;16.10;;;10.10;;
9665;SDS011;4871;52.004;5.924;2023-01-20T03:20:00;16.10;;;10.10;;
9665;SDS011;4871;52.004;5.924;2023-01-20T03:21:00;16.10;;;10.10;;
9665;SDS011;4871;52.004;5.924;2023-01-20T03:22:00;16.10;;;10.10;;
9665;SDS011;4871;52.004;5.924;2023-01-20T03:23:00;16.10;;;10.10;;
9665;SDS011;4871;52.004;5.924;2023-01-20T03:24:00;16.10;;;10.10;;
9665;SDS011;4871;52.004;5.924;2023-01-20T03:25:00;16.10;;;10.10;;
9665;SDS011;4871;52.004;5.924;2023-01-20T03:26:02;16.10;;;10.10;;
9665;SDS011;4871;52.004;5.924;2023-01-20T03:27:00;16.10;;;10.10;;
9665;SDS011;4871;52.004;5.924;2023-01-20T03:28:00;16.10;;;10.10;;
9665;SDS011;4871;52.004;5.924;2023-01-20T03:29:01;18.30;;;10.50;;
9665;SDS011;4871;52.004;5.924;2023-01-20T03:30:00;18.30;;;10.50;;
9665;SDS011;4871;52.004;5.924;2023-01-20T03:31:00;18.30;;;10.50;;
9665;SDS011;4871;52.004;5.924;2023-01-20T03:32:00;18.30;;;10.50;;
9665;SDS011;4871;52.004;5.924;2023-01-20T03:33:00;18.30;;;10.50;;
9665;SDS011;4871;52.004;5.924;2023-01-20T03:34:00;18.30;;;10.50;;
9665;SDS011;4871;52.004;5.924;2023-01-20T03:35:00;18.30;;;10.50;;
9665;SDS011;4871;52.004;5.924;2023-01-20T03:36:00;18.30;;;10.50;;
9665;SDS011;4871;52.004;5.924;2023-01-20T03:37:00;18.30;;;10.50;;
9665;SDS011;4871;52.004;5.924;2023-01-20T03:38:00;18.30;;;10.50;;
9665;SDS011;4871;52.004;5.924;2023-01-20T03:39:00;18.30;;;10.50;;
9665;SDS011;4871;52.004;5.924;2023-01-20T03:40:01;18.30;;;10.50;;
9665;SDS011;4871;52.004;5.924;2023-01-20T03:41:03;18.30;;;10.50;;
9665;SDS011;4871;52.004;5.924;2023-01-20T03:42:19;18.30;;;10.50;;
9665;SDS011;4871;52.004;5.924;2023-01-20T03:43:05;18.30;;;10.50;;
9665;SDS011;4871;52.004;5.924;2023-01-20T03:45:04;18.30;;;10.50;;
9665;SDS011;4871;52.004;5.924;2023-01-20T03:46:01;18.30;;;10.50;;
9665;SDS011;4871;52.004;5.924;2023-01-20T03:49:06;18.30;;;10.50;;
9665;SDS011;4871;52.004;5.924;2023-01-20T03:50:05;18.30;;;10.50;;
9665;SDS011;4871;52.004;5.924;2023-01-20T03:51:04;18.30;;;10.50;;
9665;SDS011;4871;52.004;5.924;2023-01-20T03:52:02;18.30;;;10.50;;
9665;SDS011;4871;52.004;5.924;2023-01-20T03:53:05;18.30;;;10.50;;
9665;SDS011;4871;52.004;5.924;2023-01-20T03:54:02;18.30;;;10.50;;
9665;SDS011;4871;52.004;5.924;2023-01-20T03:55:09;18.30;;;10.50;;
9665;SDS011;4871;52.004;5.924;2023-01-20T03:56:02;18.30;;;10.50;;
9665;SDS011;4871;52.004;5.924;2023-01-20T03:57:05;18.30;;;10.50;;
9665;SDS011;4871;52.004;5.924;2023-01-20T03:58:07;18.30;;;10.50;;
9665;SDS011;4871;52.004;5.924;2023-01-20T03:59:00;18.90;;;10.80;;
9665;SDS011;4871;52.004;5.924;2023-01-20T04:00:00;18.90;;;10.80;;
9665;SDS011;4871;52.004;5.924;2023-01-20T04:01:00;18.90;;;10.80;;
9665;SDS011;4871;52.004;5.924;2023-01-20T04:02:01;18.90;;;10.80;;
9665;SDS011;4871;52.004;5.924;2023-01-20T04:03:05;18.90;;;10.80;;
9665;SDS011;4871;52.004;5.924;2023-01-20T04:04:00;18.90;;;10.80;;
9665;SDS011;4871;52.004;5.924;2023-01-20T04:05:00;18.90;;;10.80;;
9665;SDS011;4871;52.004;5.924;2023-01-20T04:06:00;18.90;;;10.80;;
9665;SDS011;4871;52.004;5.924;2023-01-20T04:07:00;18.90;;;10.80;;
9665;SDS011;4871;52.004;5.924;2023-01-20T04:08:00;18.90;;;10.80;;
9665;SDS011;4871;52.004;5.924;2023-01-20T04:09:02;18.90;;;10.80;;
9665;SDS011;4871;52.004;5.924;2023-01-20T04:10:02;18.90;;;10.80;;
9665;SDS011;4871;52.004;5.924;2023-01-20T04:11:00;18.90;;;10.80;;
9665;SDS011;4871;52.004;5.924;2023-01-20T04:12:00;18.90;;;10.80;;
9665;SDS011;4871;52.004;5.924;2023-01-20T04:13:00;18.90;;;10.80;;
9665;SDS011;4871;52.004;5.924;2023-01-20T04:14:00;18.90;;;10.80;;
9665;SDS011;4871;52.004;5.924;2023-01-20T04:15:00;18.90;;;10.80;;
9665;SDS011;4871;52.004;5.924;2023-01-20T04:16:00;18.90;;;10.80;;
9665;SDS011;4871;52.004;5.924;2023-01-20T04:17:00;18.90;;;10.80;;
9665;SDS011;4871;52.004;5.924;2023-01-20T04:18:09;18.90;;;10.80;;
9665;SDS011;4871;52.004;5.924;2023-01-20T04:19:00;18.90;;;10.80;;
9665;SDS011;4871;52.004;5.924;2023-01-20T04:20:03;18.90;;;10.80;;
9665;SDS011;4871;52.004;5.924;2023-01-20T04:21:01;18.90;;;10.80;;
9665;SDS011;4871;52.004;5.924;2023-01-20T04:23:00;18.90;;;10.80;;
9665;SDS011;4871;52.004;5.924;2023-01-20T04:25:00;18.90;;;10.80;;
9665;SDS011;4871;52.004;5.924;2023-01-20T04:26:00;18.90;;;10.80;;
9665;SDS011;4871;52.004;5.924;2023-01-20T04:27:00;18.90;;;10.80;;
9665;SDS011;4871;52.004;5.924;2023-01-20T04:28:00;18.90;;;10.80;;
9665;SDS011;4871;52.004;5.924;2023-01-20T04:29:07;24.90;;;13.60;;
9665;SDS011;4871;52.004;5.924;2023-01-20T04:30:00;24.90;;;13.60;;
9665;SDS011;4871;52.004;5.924;2023-01-20T04:31:00;24.90;;;13.60;;
9665;SDS011;4871;52.004;5.924;2023-01-20T04:32:00;24.90;;;13.60;;
9665;SDS011;4871;52.004;5.924;2023-01-20T04:33:00;24.90;;;13.60;;
9665;SDS011;4871;52.004;5.924;2023-01-20T04:34:00;24.90;;;13.60;;
9665;SDS011;4871;52.004;5.924;2023-01-20T04:35:00;24.90;;;13.60;;
9665;SDS011;4871;52.004;5.924;2023-01-20T04:36:00;24.90;;;13.60;;
9665;SDS011;4871;52.004;5.924;2023-01-20T04:37:00;24.90;;;13.60;;
9665;SDS011;4871;52.004;5.924;2023-01-20T04:38:00;24.90;;;13.60;;
9665;SDS011;4871;52.004;5.924;2023-01-20T04:39:00;24.90;;;13.60;;
9665;SDS011;4871;52.004;5.924;2023-01-20T04:40:00;24.90;;;13.60;;
9665;SDS011;4871;52.004;5.924;2023-01-20T04:41:00;24.90;;;13.60;;
9665;SDS011;4871;52.004;5.924;2023-01-20T04:42:00;24.90;;;13.60;;
9665;SDS011;4871;52.004;5.924;2023-01-20T04:43:00;24.90;;;13.60;;
9665;SDS011;4871;52.004;5.924;2023-01-20T04:44:00;24.90;;;13.60;;
9665;SDS011;4871;52.004;5.924;2023-01-20T04:45:00;24.90;;;13.60;;
9665;SDS011;4871;52.004;5.924;2023-01-20T04:46:00;24.90;;;13.60;;
9665;SDS011;4871;52.004;5.924;2023-01-20T04:47:00;24.90;;;13.60;;
9665;SDS011;4871;52.004;5.924;2023-01-20T04:48:00;24.90;;;13.60;;
9665;SDS011;4871;52.004;5.924;2023-01-20T04:49:00;24.90;;;13.60;;
9665;SDS011;4871;52.004;5.924;2023-01-20T04:50:00;24.90;;;13.60;;
9665;SDS011;4871;52.004;5.924;2023-01-20T04:51:02;24.90;;;13.60;;
9665;SDS011;4871;52.004;5.924;2023-01-20T04:52:00;24.90;;;13.60;;
9665;SDS011;4871;52.004;5.924;2023-01-20T04:53:00;24.90;;;13.60;;
9665;SDS011;4871;52.004;5.924;2023-01-20T04:54:00;24.90;;;13.60;;
9665;SDS011;4871;52.004;5.924;2023-01-20T04:55:00;24.90;;;13.60;;
9665;SDS011;4871;52.004;5.924;2023-01-20T04:56:00;24.90;;;13.60;;
9665;SDS011;4871;52.004;5.924;2023-01-20T04:57:00;24.90;;;13.60;;
9665;SDS011;4871;52.004;5.924;2023-01-20T04:58:00;31.10;;;14.20;;
9665;SDS011;4871;52.004;5.924;2023-01-20T04:59:00;31.10;;;14.20;;
9665;SDS011;4871;52.004;5.924;2023-01-20T05:00:00;31.10;;;14.20;;
9665;SDS011;4871;52.004;5.924;2023-01-20T05:01:00;31.10;;;14.20;;
9665;SDS011;4871;52.004;5.924;2023-01-20T05:02:00;31.10;;;14.20;;
9665;SDS011;4871;52.004;5.924;2023-01-20T05:03:01;31.10;;;14.20;;
9665;SDS011;4871;52.004;5.924;2023-01-20T05:04:00;31.10;;;14.20;;
9665;SDS011;4871;52.004;5.924;2023-01-20T05:05:00;31.10;;;14.20;;
9665;SDS011;4871;52.004;5.924;2023-01-20T05:06:00;31.10;;;14.20;;
9665;SDS011;4871;52.004;5.924;2023-01-20T05:07:00;31.10;;;14.20;;
9665;SDS011;4871;52.004;5.924;2023-01-20T05:08:00;31.10;;;14.20;;
9665;SDS011;4871;52.004;5.924;2023-01-20T05:09:00;31.10;;;14.20;;
9665;SDS011;4871;52.004;5.924;2023-01-20T05:10:00;31.10;;;14.20;;
9665;SDS011;4871;52.004;5.924;2023-01-20T05:11:00;31.10;;;14.20;;
9665;SDS011;4871;52.004;5.924;2023-01-20T05:12:00;31.10;;;14.20;;
9665;SDS011;4871;52.004;5.924;2023-01-20T05:13:00;31.10;;;14.20;;
9665;SDS011;4871;52.004;5.924;2023-01-20T05:14:00;31.10;;;14.20;;
9665;SDS011;4871;52.004;5.924;2023-01-20T05:15:00;31.10;;;14.20;;
9665;SDS011;4871;52.004;5.924;2023-01-20T05:16:00;31.10;;;14.20;;
9665;SDS011;4871;52.004;5.924;2023-01-20T05:17:00;31.10;;;14.20;;
9665;SDS011;4871;52.004;5.924;2023-01-20T05:18:00;31.10;;;14.20;;
9665;SDS011;4871;52.004;5.924;2023-01-20T05:19:00;31.10;;;14.20;;
9665;SDS011;4871;52.004;5.924;2023-01-20T05:20:00;31.10;;;14.20;;
9665;SDS011;4871;52.004;5.924;2023-01-20T05:21:00;31.10;;;14.20;;
9665;SDS011;4871;52.004;5.924;2023-01-20T05:22:00;31.10;;;14.20;;
9665;SDS011;4871;52.004;5.924;2023-01-20T05:23:00;31.10;;;14.20;;
9665;SDS011;4871;52.004;5.924;2023-01-20T05:24:00;31.10;;;14.20;;
9665;SDS011;4871;52.004;5.924;2023-01-20T05:25:00;31.10;;;14.20;;
9665;SDS011;4871;52.004;5.924;2023-01-20T05:26:00;31.10;;;14.20;;
9665;SDS011;4871;52.004;5.924;2023-01-20T05:27:00;31.10;;;14.20;;
9665;SDS011;4871;52.004;5.924;2023-01-20T05:28:00;28.90;;;14.90;;
9665;SDS011;4871;52.004;5.924;2023-01-20T05:29:01;28.90;;;14.90;;
9665;SDS011;4871;52.004;5.924;2023-01-20T05:30:00;28.90;;;14.90;;
9665;SDS011;4871;52.004;5.924;2023-01-20T05:31:00;28.90;;;14.90;;
9665;SDS011;4871;52.004;5.924;2023-01-20T05:32:00;28.90;;;14.90;;
9665;SDS011;4871;52.004;5.924;2023-01-20T05:33:00;28.90;;;14.90;;
9665;SDS011;4871;52.004;5.924;2023-01-20T05:34:00;28.90;;;14.90;;
9665;SDS011;4871;52.004;5.924;2023-01-20T05:35:00;28.90;;;14.90;;
9665;SDS011;4871;52.004;5.924;2023-01-20T05:36:03;28.90;;;14.90;;
9665;SDS011;4871;52.004;5.924;2023-01-20T05:37:00;28.90;;;14.90;;
9665;SDS011;4871;52.004;5.924;2023-01-20T05:38:00;28.90;;;14.90;;
9665;SDS011;4871;52.004;5.924;2023-01-20T05:39:00;28.90;;;14.90;;
9665;SDS011;4871;52.004;5.924;2023-01-20T05:40:00;28.90;;;14.90;;
9665;SDS011;4871;52.004;5.924;2023-01-20T05:41:00;28.90;;;14.90;;
9665;SDS011;4871;52.004;5.924;2023-01-20T05:42:00;28.90;;;14.90;;
9665;SDS011;4871;52.004;5.924;2023-01-20T05:43:00;28.90;;;14.90;;
9665;SDS011;4871;52.004;5.924;2023-01-20T05:44:00;28.90;;;14.90;;
9665;SDS011;4871;52.004;5.924;2023-01-20T05:45:00;28.90;;;14.90;;
9665;SDS011;4871;52.004;5.924;2023-01-20T05:46:00;28.90;;;14.90;;
9665;SDS011;4871;52.004;5.924;2023-01-20T05:47:00;28.90;;;14.90;;
9665;SDS011;4871;52.004;5.924;2023-01-20T05:48:00;28.90;;;14.90;;
9665;SDS011;4871;52.004;5.924;2023-01-20T05:49:01;28.90;;;14.90;;
9665;SDS011;4871;52.004;5.924;2023-01-20T05:50:00;28.90;;;14.90;;
9665;SDS011;4871;52.004;5.924;2023-01-20T05:51:00;28.90;;;14.90;;
9665;SDS011;4871;52.004;5.924;2023-01-20T05:52:00;28.90;;;14.90;;
9665;SDS011;4871;52.004;5.924;2023-01-20T05:53:00;28.90;;;14.90;;
9665;SDS011;4871;52.004;5.924;2023-01-20T05:54:00;28.90;;;14.90;;
9665;SDS011;4871;52.004;5.924;2023-01-20T05:55:00;28.90;;;14.90;;
9665;SDS011;4871;52.004;5.924;2023-01-20T05:56:01;28.90;;;14.90;;
9665;SDS011;4871;52.004;5.924;2023-01-20T05:57:00;28.90;;;14.90;;
9665;SDS011;4871;52.004;5.924;2023-01-20T05:58:00;20.00;;;10.90;;
9665;SDS011;4871;52.004;5.924;2023-01-20T05:59:00;20.00;;;10.90;;
9665;SDS011;4871;52.004;5.924;2023-01-20T06:00:00;20.00;;;10.90;;
9665;SDS011;4871;52.004;5.924;2023-01-20T06:01:08;20.00;;;10.90;;
9665;SDS011;4871;52.004;5.924;2023-01-20T06:02:00;20.00;;;10.90;;
9665;SDS011;4871;52.004;5.924;2023-01-20T06:03:00;20.00;;;10.90;;
9665;SDS011;4871;52.004;5.924;2023-01-20T06:04:00;20.00;;;10.90;;
9665;SDS011;4871;52.004;5.924;2023-01-20T06:05:01;20.00;;;10.90;;
9665;SDS011;4871;52.004;5.924;2023-01-20T06:06:00;20.00;;;10.90;;
9665;SDS011;4871;52.004;5.924;2023-01-20T06:07:00;20.00;;;10.90;;
9665;SDS011;4871;52.004;5.924;2023-01-20T06:08:00;20.00;;;10.90;;
9665;SDS011;4871;52.004;5.924;2023-01-20T06:09:00;20.00;;;10.90;;
9665;SDS011;4871;52.004;5.924;2023-01-20T06:10:01;20.00;;;10.90;;
9665;SDS011;4871;52.004;5.924;2023-01-20T06:11:01;20.00;;;10.90;;
9665;SDS011;4871;52.004;5.924;2023-01-20T06:12:00;20.00;;;10.90;;
9665;SDS011;4871;52.004;5.924;2023-01-20T06:13:00;20.00;;;10.90;;
9665;SDS011;4871;52.004;5.924;2023-01-20T06:14:00;20.00;;;10.90;;
9665;SDS011;4871;52.004;5.924;2023-01-20T06:15:00;20.00;;;10.90;;
9665;SDS011;4871;52.004;5.924;2023-01-20T06:16:00;20.00;;;10.90;;
9665;SDS011;4871;52.004;5.924;2023-01-20T06:17:00;20.00;;;10.90;;
9665;SDS011;4871;52.004;5.924;2023-01-20T06:18:00;20.00;;;10.90;;
9665;SDS011;4871;52.004;5.924;2023-01-20T06:19:00;20.00;;;10.90;;
9665;SDS011;4871;52.004;5.924;2023-01-20T06:20:00;20.00;;;10.90;;
9665;SDS011;4871;52.004;5.924;2023-01-20T06:21:00;20.00;;;10.90;;
9665;SDS011;4871;52.004;5.924;2023-01-20T06:22:00;20.00;;;10.90;;
9665;SDS011;4871;52.004;5.924;2023-01-20T06:23:00;20.00;;;10.90;;
9665;SDS011;4871;52.004;5.924;2023-01-20T06:24:00;20.00;;;10.90;;
9665;SDS011;4871;52.004;5.924;2023-01-20T06:25:00;20.00;;;10.90;;
9665;SDS011;4871;52.004;5.924;2023-01-20T06:26:01;20.00;;;10.90;;
9665;SDS011;4871;52.004;5.924;2023-01-20T06:27:00;20.00;;;10.90;;